CYHU/YHU METAR and TAF weather

Enter ICAO airport designator
Station Type Date Time Source
CYHU METAR 2021/06/24 06:00 UTC NOAA

CYHU 240600Z AUTO 17005KT 9SM CLR 13/07 A3024 RMK SLP241


Station Type Date Time Source
CYHU Decoded METAR 2021/06/24 06:00 UTC NOAA

Saint Hubert Airport , Canada (CYHU) 45-31N 073-25W
Jun 24, 2021 - 02:00 AM EDT / 2021.06.24 0600 UTC
Wind: from the S (170 degrees) at 6 MPH (5 KT):0
Visibility: 9 mile(s):0
Sky conditions: clear
Temperature: 55 F (13 C)
Dew Point: 44 F (7 C)
Relative Humidity: 66%
Pressure (altimeter): 30.24 in. Hg (1024 hPa)
ob: CYHU 240600Z AUTO 17005KT 9SM CLR 13/07 A3024 RMK SLP241
cycle: 6

Station Type Date Time Source
CYHU TAF 2021/06/24 06:42 UTC NOAA

TAF TAF CYHU 240538Z 2406/2506 19007KT P6SM SKC
FM241200 18012KT P6SM SKC
BECMG 2414/2416 18015G25KT FEW060
FM250100 18012G22KT P6SM SKC
RMK FCST BASED ON AUTO OBS. NXT FCST BY 241200Z

Example: see airport list